Time;durP1;ratioP1;P1;durP2;ratioP2;P2;SDS_P1;SDS_P2;PMS_P1;PMS_P2;Temp;Humidity;BMP_temperature;BMP_pressure;BME280_temperature;BME280_humidity;BME280_pressure;Samples;Min_cycle;Max_cycle;Signal;HPM_P1;HPM_P2
2023/06/13 00:02:23;;;;;;;5.72;3.33;;;;;;;;;;5014674;28;20191;-46
2023/06/13 00:04:51;;;;;;;3.75;3.25;;;;;;;;;;5007037;28;20186;-45
2023/06/13 00:07:17;;;;;;;4.63;2.97;;;;;;;;;;5013437;28;20204;-46
2023/06/13 00:09:43;;;;;;;4.55;3.33;;;;;;;;;;5010247;28;20185;-46
2023/06/13 00:12:09;;;;;;;4.60;3.50;;;;;;;;;;5012870;28;20184;-46
2023/06/13 00:14:35;;;;;;;6.70;3.83;;;;;;;;;;5006823;28;20177;-46
2023/06/13 00:17:02;;;;;;;6.05;3.85;;;;;;;;;;5013600;28;20234;-46
2023/06/13 00:19:28;;;;;;;4.68;3.40;;;;;;;;;;5004569;28;20303;-45
2023/06/13 00:21:56;;;;;;;3.72;3.33;;;;;;;;;;5014226;28;20556;-45
2023/06/13 00:24:22;;;;;;;8.18;3.38;;;;;;;;;;5009404;28;20205;-45
2023/06/13 00:26:48;;;;;;;4.00;3.28;;;;;;;;;;5013327;28;20374;-45
2023/06/13 00:29:14;;;;;;;4.88;3.40;;;;;;;;;;5013998;28;20585;-45
2023/06/13 00:31:40;;;;;;;3.95;3.47;;;;;;;;;;5012810;28;20192;-45
2023/06/13 00:34:06;;;;;;;6.60;3.35;;;;;;;;;;5012518;28;20263;-45
2023/06/13 00:36:37;;;;;;;5.05;3.70;;;;;;;;;;5007484;28;20282;-45
2023/06/13 00:39:03;;;;;;;5.00;3.47;;;;;;;;;;5013307;28;20181;-45
2023/06/13 00:41:31;;;;;;;5.18;3.65;;;;;;;;;;5013294;28;20184;-45
2023/06/13 00:43:57;;;;;;;3.97;3.47;;;;;;;;;;5010260;28;20550;-45
2023/06/13 00:46:28;;;;;;;5.43;3.78;;;;;;;;;;5012531;28;20327;-45
2023/06/13 00:48:57;;;;;;;5.63;3.92;;;;;;;;;;5014081;28;20246;-45
2023/06/13 00:51:23;;;;;;;4.50;3.67;;;;;;;;;;5013357;28;20556;-45
2023/06/13 00:53:50;;;;;;;4.47;3.60;;;;;;;;;;5011802;28;20177;-45
2023/06/13 00:56:16;;;;;;;3.78;3.38;;;;;;;;;;5007815;28;20192;-45
2023/06/13 00:58:42;;;;;;;5.78;3.50;;;;;;;;;;5013031;28;20588;-46
2023/06/13 01:01:09;;;;;;;3.90;3.50;;;;;;;;;;5012414;28;20192;-46
2023/06/13 01:03:37;;;;;;;8.60;3.50;;;;;;;;;;5013457;28;20198;-46
2023/06/13 01:06:03;;;;;;;4.03;3.30;;;;;;;;;;5006315;28;20604;-45
2023/06/13 01:08:29;;;;;;;4.75;3.50;;;;;;;;;;5015168;28;20184;-46
2023/06/13 01:11:00;;;;;;;4.50;3.35;;;;;;;;;;5010381;28;20184;-45
2023/06/13 01:13:34;;;;;;;5.88;3.35;;;;;;;;;;5012565;28;20256;-46
2023/06/13 01:16:10;;;;;;;6.55;4.03;;;;;;;;;;5010564;28;20179;-45
2023/06/13 01:18:39;;;;;;;4.45;3.40;;;;;;;;;;5015793;28;20415;-45
2023/06/13 01:21:06;;;;;;;5.90;4.22;;;;;;;;;;5016478;28;20580;-46
2023/06/13 01:23:36;;;;;;;5.70;3.72;;;;;;;;;;5011377;28;20311;-46
2023/06/13 01:26:15;;;;;;;4.10;3.60;;;;;;;;;;5009261;28;20208;-46
2023/06/13 01:28:43;;;;;;;4.13;3.65;;;;;;;;;;5018740;28;20177;-46
2023/06/13 01:31:11;;;;;;;4.72;3.78;;;;;;;;;;5030070;28;20184;-46
2023/06/13 01:33:37;;;;;;;3.53;3.22;;;;;;;;;;5015415;28;20192;-46
2023/06/13 01:36:03;;;;;;;3.55;3.25;;;;;;;;;;5015535;28;20906;-46
2023/06/13 01:38:29;;;;;;;3.67;3.15;;;;;;;;;;5013810;28;20192;-46
2023/06/13 01:40:55;;;;;;;3.80;3.10;;;;;;;;;;5011985;28;20603;-45
2023/06/13 01:43:21;;;;;;;3.50;3.20;;;;;;;;;;5008263;28;20264;-45
2023/06/13 01:45:47;;;;;;;5.28;3.40;;;;;;;;;;5012787;28;20185;-45
2023/06/13 01:48:16;;;;;;;4.97;3.38;;;;;;;;;;5016690;28;20448;-46
2023/06/13 01:51:18;;;;;;;5.15;3.65;;;;;;;;;;5016376;28;20188;-45
2023/06/13 01:53:50;;;;;;;4.00;3.60;;;;;;;;;;5034556;28;20191;-45
2023/06/13 01:56:19;;;;;;;3.58;3.25;;;;;;;;;;5020042;28;20196;-46
2023/06/13 01:58:50;;;;;;;5.50;3.35;;;;;;;;;;5014103;28;20184;-46
2023/06/13 02:01:18;;;;;;;6.13;3.67;;;;;;;;;;5016476;28;20188;-46
2023/06/13 02:03:45;;;;;;;4.20;3.13;;;;;;;;;;5014409;28;20184;-46
2023/06/13 02:06:10;;;;;;;4.18;3.50;;;;;;;;;;5015421;28;20184;-46
2023/06/13 02:08:36;;;;;;;10.85;3.60;;;;;;;;;;5013043;28;20194;-45
2023/06/13 02:11:02;;;;;;;3.85;3.45;;;;;;;;;;5016289;28;20184;-45
2023/06/13 02:13:28;;;;;;;4.13;3.70;;;;;;;;;;5013182;28;20215;-45
2023/06/13 02:15:54;;;;;;;4.38;3.97;;;;;;;;;;5011729;28;20197;-45
2023/06/13 02:18:20;;;;;;;3.30;3.00;;;;;;;;;;5011315;28;20192;-45
2023/06/13 02:20:46;;;;;;;4.22;3.15;;;;;;;;;;5015306;28;20200;-45
2023/06/13 02:23:12;;;;;;;5.50;3.30;;;;;;;;;;5009449;28;20215;-45
2023/06/13 02:25:38;;;;;;;3.83;3.05;;;;;;;;;;5013836;28;20212;-46
2023/06/13 02:28:04;;;;;;;4.15;3.75;;;;;;;;;;5014676;28;20596;-46
2023/06/13 02:30:30;;;;;;;4.28;3.70;;;;;;;;;;5015833;28;20506;-45
2023/06/13 02:32:58;;;;;;;3.85;3.45;;;;;;;;;;5015973;28;20184;-46
2023/06/13 02:35:24;;;;;;;5.35;3.45;;;;;;;;;;5015057;28;20172;-45
2023/06/13 02:37:53;;;;;;;4.78;3.50;;;;;;;;;;5015245;28;20198;-45
2023/06/13 02:40:19;;;;;;;4.03;3.63;;;;;;;;;;5011971;28;20195;-45
2023/06/13 02:42:49;;;;;;;9.43;3.35;;;;;;;;;;5012727;28;20322;-46
2023/06/13 02:45:15;;;;;;;5.53;3.60;;;;;;;;;;5014085;28;20184;-45
2023/06/13 02:47:41;;;;;;;4.57;3.83;;;;;;;;;;5005804;28;20217;-46
2023/06/13 02:50:07;;;;;;;4.22;3.63;;;;;;;;;;5016019;28;20267;-45
2023/06/13 02:52:33;;;;;;;4.50;3.83;;;;;;;;;;5014334;28;20314;-45
2023/06/13 02:54:59;;;;;;;3.85;3.45;;;;;;;;;;5007328;28;20173;-45
2023/06/13 02:57:25;;;;;;;5.40;3.75;;;;;;;;;;5012183;28;20189;-45
2023/06/13 02:59:51;;;;;;;6.13;4.07;;;;;;;;;;5015512;28;20486;-45
2023/06/13 03:02:20;;;;;;;6.20;3.42;;;;;;;;;;5006572;28;20207;-45
2023/06/13 03:04:47;;;;;;;6.55;3.50;;;;;;;;;;5007559;28;20315;-45
2023/06/13 03:07:16;;;;;;;5.55;3.65;;;;;;;;;;5013282;28;20567;-46
2023/06/13 03:09:42;;;;;;;4.78;3.03;;;;;;;;;;5012370;28;20187;-46
2023/06/13 03:12:08;;;;;;;4.10;3.70;;;;;;;;;;5008558;28;20176;-45
2023/06/13 03:14:34;;;;;;;4.13;3.47;;;;;;;;;;5006368;28;20192;-45
2023/06/13 03:17:02;;;;;;;3.75;3.35;;;;;;;;;;5001836;28;20196;-45
2023/06/13 03:19:28;;;;;;;6.05;3.33;;;;;;;;;;5017377;28;20176;-45
2023/06/13 03:21:54;;;;;;;3.88;3.42;;;;;;;;;;5009976;28;20244;-45
2023/06/13 03:24:20;;;;;;;4.82;3.38;;;;;;;;;;5008851;28;20236;-45
2023/06/13 03:26:46;;;;;;;5.57;3.67;;;;;;;;;;5009201;28;20275;-45
2023/06/13 03:29:13;;;;;;;5.97;3.60;;;;;;;;;;5014576;28;20205;-45
2023/06/13 03:31:39;;;;;;;5.00;3.28;;;;;;;;;;5007536;28;20193;-45
2023/06/13 03:34:06;;;;;;;4.10;3.30;;;;;;;;;;5012316;28;20196;-45
2023/06/13 03:36:37;;;;;;;3.70;3.30;;;;;;;;;;5017663;28;20202;-45
2023/06/13 03:39:03;;;;;;;3.83;3.42;;;;;;;;;;5013383;28;20594;-45
2023/06/13 03:41:29;;;;;;;3.70;3.28;;;;;;;;;;5011769;28;20184;-45
2023/06/13 03:43:55;;;;;;;4.15;3.47;;;;;;;;;;5009488;28;20219;-45
2023/06/13 03:46:21;;;;;;;3.72;3.30;;;;;;;;;;5012764;28;20597;-46
2023/06/13 03:48:46;;;;;;;3.75;3.28;;;;;;;;;;5010421;28;20256;-45
2023/06/13 03:51:12;;;;;;;6.45;3.08;;;;;;;;;;5013026;28;20190;-45
2023/06/13 03:53:39;;;;;;;4.15;3.03;;;;;;;;;;5005221;28;20272;-45
2023/06/13 03:56:06;;;;;;;5.43;3.50;;;;;;;;;;5012046;28;20252;-45
2023/06/13 03:58:32;;;;;;;6.38;2.92;;;;;;;;;;5012855;28;20635;-45
2023/06/13 04:00:59;;;;;;;7.43;3.80;;;;;;;;;;5013128;28;20552;-45
2023/06/13 04:03:29;;;;;;;5.53;3.05;;;;;;;;;;5010651;28;20413;-45
2023/06/13 04:05:55;;;;;;;4.60;3.47;;;;;;;;;;5013059;28;20207;-45
2023/06/13 04:08:21;;;;;;;4.93;3.38;;;;;;;;;;5012605;28;20197;-45
2023/06/13 04:10:47;;;;;;;3.60;3.20;;;;;;;;;;5006612;28;20185;-45
2023/06/13 04:13:13;;;;;;;5.85;3.40;;;;;;;;;;5013303;28;20552;-45
2023/06/13 04:15:38;;;;;;;4.07;3.38;;;;;;;;;;5007316;28;20189;-45
2023/06/13 04:18:05;;;;;;;6.15;3.65;;;;;;;;;;5012737;28;20722;-45
2023/06/13 04:20:31;;;;;;;5.40;3.35;;;;;;;;;;5012589;28;20275;-45
2023/06/13 04:22:57;;;;;;;4.55;3.40;;;;;;;;;;5014109;28;20672;-45
2023/06/13 04:25:23;;;;;;;5.53;3.40;;;;;;;;;;5010136;28;20181;-45
2023/06/13 04:27:49;;;;;;;3.20;2.90;;;;;;;;;;5007130;28;20500;-45
2023/06/13 04:30:15;;;;;;;3.85;3.42;;;;;;;;;;5012894;28;20184;-45
2023/06/13 04:32:45;;;;;;;5.03;3.53;;;;;;;;;;5014053;28;20181;-46
2023/06/13 04:35:16;;;;;;;6.70;3.42;;;;;;;;;;5011598;28;20247;-45
2023/06/13 04:37:43;;;;;;;5.80;3.55;;;;;;;;;;5013474;28;20173;-45
2023/06/13 04:40:09;;;;;;;5.05;3.15;;;;;;;;;;5013554;28;20180;-45
2023/06/13 04:42:37;;;;;;;6.25;3.58;;;;;;;;;;5017400;28;20768;-46
2023/06/13 04:45:04;;;;;;;4.28;3.05;;;;;;;;;;5012381;28;20271;-45
2023/06/13 04:47:31;;;;;;;4.32;3.63;;;;;;;;;;5017239;28;20228;-45
2023/06/13 04:50:00;;;;;;;4.43;3.30;;;;;;;;;;5017448;28;20203;-45
2023/06/13 04:52:27;;;;;;;4.18;3.50;;;;;;;;;;5017731;28;20180;-45
2023/06/13 04:54:54;;;;;;;5.93;3.28;;;;;;;;;;5015239;28;20604;-45
2023/06/13 04:57:20;;;;;;;5.35;3.40;;;;;;;;;;5008318;28;20184;-46
2023/06/13 04:59:46;;;;;;;3.85;3.45;;;;;;;;;;5015944;28;20196;-45
2023/06/13 05:02:12;;;;;;;3.60;3.30;;;;;;;;;;5012926;28;20451;-46
2023/06/13 05:04:39;;;;;;;4.78;3.33;;;;;;;;;;5015250;28;20572;-45
2023/06/13 05:07:06;;;;;;;7.18;3.33;;;;;;;;;;5014361;28;20207;-45
2023/06/13 05:09:32;;;;;;;4.72;3.28;;;;;;;;;;5012891;28;20461;-45
2023/06/13 05:11:58;;;;;;;4.07;3.40;;;;;;;;;;5016694;28;20181;-45
2023/06/13 05:14:24;;;;;;;5.05;3.10;;;;;;;;;;5014856;28;20263;-45
2023/06/13 05:16:50;;;;;;;5.25;3.85;;;;;;;;;;5007562;28;20196;-45
2023/06/13 05:19:17;;;;;;;5.93;3.70;;;;;;;;;;5010535;28;20194;-45
2023/06/13 05:21:43;;;;;;;5.18;3.45;;;;;;;;;;5013593;28;20579;-45
2023/06/13 05:24:10;;;;;;;3.65;3.22;;;;;;;;;;5015797;28;20184;-45
2023/06/13 05:26:36;;;;;;;4.68;3.70;;;;;;;;;;5017326;28;20267;-45
2023/06/13 05:29:05;;;;;;;4.45;3.50;;;;;;;;;;5014813;28;20208;-46
2023/06/13 05:31:31;;;;;;;7.00;3.85;;;;;;;;;;5017829;28;20176;-45
2023/06/13 05:33:57;;;;;;;3.90;3.50;;;;;;;;;;5015710;28;20234;-45
2023/06/13 05:36:23;;;;;;;4.15;3.40;;;;;;;;;;5016146;28;20233;-45
2023/06/13 05:38:49;;;;;;;4.43;3.75;;;;;;;;;;5016422;28;20188;-45
2023/06/13 05:41:15;;;;;;;7.15;3.85;;;;;;;;;;5014876;28;20855;-45
2023/06/13 05:43:40;;;;;;;3.70;3.40;;;;;;;;;;5012446;28;20192;-45
2023/06/13 05:46:06;;;;;;;5.68;3.55;;;;;;;;;;5011589;28;20220;-45
2023/06/13 05:48:32;;;;;;;4.80;3.47;;;;;;;;;;5012017;28;20212;-45
2023/06/13 05:50:58;;;;;;;4.95;3.42;;;;;;;;;;5016607;28;20208;-45
2023/06/13 05:53:24;;;;;;;6.15;3.67;;;;;;;;;;5011515;28;20184;-45
2023/06/13 05:55:50;;;;;;;4.80;3.67;;;;;;;;;;5015096;28;20215;-45
2023/06/13 05:58:16;;;;;;;6.40;3.13;;;;;;;;;;5016199;28;20208;-45
2023/06/13 06:00:42;;;;;;;4.00;3.28;;;;;;;;;;5016369;28;20226;-45
2023/06/13 06:03:08;;;;;;;5.47;3.40;;;;;;;;;;5016479;28;20172;-45
2023/06/13 06:05:34;;;;;;;6.15;3.20;;;;;;;;;;5009272;28;20300;-46
2023/06/13 06:08:00;;;;;;;4.07;3.45;;;;;;;;;;5016290;28;20212;-46
2023/06/13 06:10:26;;;;;;;5.30;3.00;;;;;;;;;;5016513;28;20460;-45
2023/06/13 06:12:52;;;;;;;4.65;3.17;;;;;;;;;;5012318;28;20659;-46
2023/06/13 06:15:18;;;;;;;5.32;3.10;;;;;;;;;;5020735;28;20237;-46
2023/06/13 06:17:44;;;;;;;3.63;3.28;;;;;;;;;;5015181;28;20263;-46
2023/06/13 06:20:10;;;;;;;3.22;2.90;;;;;;;;;;5013375;28;20223;-46
2023/06/13 06:22:36;;;;;;;3.33;2.95;;;;;;;;;;5015574;28;20268;-46
2023/06/13 06:25:02;;;;;;;4.93;3.53;;;;;;;;;;5012176;28;20603;-46
2023/06/13 06:27:28;;;;;;;3.85;3.20;;;;;;;;;;5011839;28;20232;-46
2023/06/13 06:29:54;;;;;;;3.28;2.95;;;;;;;;;;5014481;28;20187;-46
2023/06/13 06:32:20;;;;;;;5.00;3.40;;;;;;;;;;5013122;28;20177;-45
2023/06/13 06:34:46;;;;;;;11.25;3.30;;;;;;;;;;5014569;28;20192;-46
2023/06/13 06:37:13;;;;;;;4.90;3.20;;;;;;;;;;5015818;28;20272;-46
2023/06/13 06:39:39;;;;;;;5.38;3.38;;;;;;;;;;5013067;28;20564;-46
2023/06/13 06:42:05;;;;;;;4.93;3.35;;;;;;;;;;5015462;28;20192;-46
2023/06/13 06:44:31;;;;;;;8.73;3.20;;;;;;;;;;5030350;28;20234;-46
2023/06/13 06:46:56;;;;;;;4.80;3.20;;;;;;;;;;5011733;28;20216;-46
2023/06/13 06:49:22;;;;;;;4.53;3.35;;;;;;;;;;5008008;28;20497;-46
2023/06/13 06:51:48;;;;;;;3.38;2.75;;;;;;;;;;5012016;28;20185;-46
2023/06/13 06:54:14;;;;;;;5.45;3.00;;;;;;;;;;5015657;28;20256;-46
2023/06/13 06:56:40;;;;;;;3.65;2.72;;;;;;;;;;5009942;28;20599;-46
2023/06/13 06:59:06;;;;;;;3.92;3.53;;;;;;;;;;5013649;28;20184;-46
2023/06/13 07:01:32;;;;;;;6.78;3.40;;;;;;;;;;5013056;28;20189;-46
2023/06/13 07:03:58;;;;;;;5.05;3.30;;;;;;;;;;5014945;28;20203;-46
2023/06/13 07:06:24;;;;;;;3.70;2.97;;;;;;;;;;5012589;28;20223;-46
2023/06/13 07:08:50;;;;;;;3.55;2.80;;;;;;;;;;5014646;28;20210;-46
2023/06/13 07:11:15;;;;;;;4.22;3.10;;;;;;;;;;5014523;28;20548;-47
2023/06/13 07:13:41;;;;;;;6.20;2.65;;;;;;;;;;5009871;28;20176;-46
2023/06/13 07:16:07;;;;;;;4.93;2.90;;;;;;;;;;5012220;28;20188;-46
2023/06/13 07:18:33;;;;;;;3.17;2.67;;;;;;;;;;5014188;28;20262;-46
2023/06/13 07:20:59;;;;;;;3.15;2.42;;;;;;;;;;5011237;28;20508;-46
2023/06/13 07:23:25;;;;;;;4.13;3.00;;;;;;;;;;5013618;28;20184;-46
2023/06/13 07:25:51;;;;;;;3.45;3.03;;;;;;;;;;5009791;28;20467;-47
2023/06/13 07:28:17;;;;;;;3.88;2.72;;;;;;;;;;5010796;28;20264;-47
2023/06/13 07:30:43;;;;;;;2.88;2.30;;;;;;;;;;5014335;28;20689;-47
2023/06/13 07:33:09;;;;;;;2.92;2.55;;;;;;;;;;5012308;28;20219;-46
2023/06/13 07:35:35;;;;;;;3.10;2.80;;;;;;;;;;5011272;28;20188;-46
2023/06/13 07:38:01;;;;;;;3.88;3.08;;;;;;;;;;5007504;28;20195;-46
2023/06/13 07:40:27;;;;;;;4.65;2.67;;;;;;;;;;5013540;28;20305;-47
2023/06/13 07:42:54;;;;;;;2.83;2.53;;;;;;;;;;5015256;28;20267;-46
2023/06/13 07:45:20;;;;;;;2.65;2.28;;;;;;;;;;5007900;28;20180;-46
2023/06/13 07:47:46;;;;;;;2.80;2.58;;;;;;;;;;5014050;28;20215;-46
2023/06/13 07:50:12;;;;;;;2.97;2.42;;;;;;;;;;5003864;28;20177;-46
2023/06/13 07:52:38;;;;;;;2.70;2.50;;;;;;;;;;5014325;28;20192;-46
2023/06/13 07:55:04;;;;;;;3.03;2.55;;;;;;;;;;5013146;28;20188;-46
2023/06/13 07:57:30;;;;;;;3.20;2.50;;;;;;;;;;5004580;28;20200;-46
2023/06/13 07:59:56;;;;;;;5.72;2.70;;;;;;;;;;5012228;28;20460;-46
2023/06/13 08:02:23;;;;;;;3.88;2.60;;;;;;;;;;5013963;28;20193;-46
2023/06/13 08:04:49;;;;;;;4.72;2.60;;;;;;;;;;5013989;28;20180;-47
2023/06/13 08:07:15;;;;;;;2.97;2.55;;;;;;;;;;5013641;28;20503;-47
2023/06/13 08:09:41;;;;;;;2.20;2.03;;;;;;;;;;5013859;28;20185;-46
2023/06/13 08:12:09;;;;;;;5.82;2.63;;;;;;;;;;5010629;28;20481;-46
2023/06/13 08:14:35;;;;;;;3.72;2.40;;;;;;;;;;5010239;28;20172;-46
2023/06/13 08:17:00;;;;;;;4.82;2.85;;;;;;;;;;5014736;28;20559;-46
2023/06/13 08:19:26;;;;;;;3.30;2.65;;;;;;;;;;5012221;28;20172;-46
2023/06/13 08:21:52;;;;;;;3.10;2.58;;;;;;;;;;5005794;28;20468;-46
2023/06/13 08:24:18;;;;;;;4.30;2.83;;;;;;;;;;5010540;28;20267;-46
2023/06/13 08:26:44;;;;;;;2.55;2.35;;;;;;;;;;5011489;28;20259;-47
2023/06/13 08:29:13;;;;;;;3.47;2.42;;;;;;;;;;5011706;28;20279;-46
2023/06/13 08:31:40;;;;;;;3.75;2.50;;;;;;;;;;5025764;28;20299;-46
2023/06/13 08:34:06;;;;;;;3.88;2.30;;;;;;;;;;5012840;28;20207;-46
2023/06/13 08:36:35;;;;;;;3.53;2.25;;;;;;;;;;5009185;28;20223;-46
2023/06/13 08:39:03;;;;;;;3.83;2.60;;;;;;;;;;5008338;28;20224;-46
2023/06/13 08:41:29;;;;;;;6.43;2.35;;;;;;;;;;5007742;28;20177;-46
2023/06/13 08:43:58;;;;;;;7.15;2.38;;;;;;;;;;5012758;28;20188;-46
2023/06/13 08:46:24;;;;;;;2.67;2.47;;;;;;;;;;5011583;28;20208;-46
2023/06/13 08:48:50;;;;;;;4.70;2.72;;;;;;;;;;5009128;28;20461;-46
2023/06/13 08:51:18;;;;;;;3.58;2.20;;;;;;;;;;5008360;28;20212;-47
2023/06/13 08:53:49;;;;;;;2.72;2.42;;;;;;;;;;5005567;28;20494;-46
2023/06/13 08:56:15;;;;;;;2.75;2.40;;;;;;;;;;5011016;28;20760;-45
2023/06/13 08:58:42;;;;;;;3.72;2.65;;;;;;;;;;5013361;28;20188;-45
2023/06/13 09:01:09;;;;;;;3.08;2.15;;;;;;;;;;5011163;28;20185;-45
2023/06/13 09:03:36;;;;;;;3.08;2.28;;;;;;;;;;5007040;28;20185;-45
2023/06/13 09:06:05;;;;;;;3.22;2.53;;;;;;;;;;5014885;28;20185;-45
2023/06/13 09:08:32;;;;;;;2.58;2.10;;;;;;;;;;5014994;28;20197;-45
2023/06/13 09:10:58;;;;;;;2.40;2.20;;;;;;;;;;5011948;28;20231;-45
2023/06/13 09:13:25;;;;;;;2.92;2.63;;;;;;;;;;5012162;28;20557;-45
2023/06/13 09:15:51;;;;;;;5.13;2.45;;;;;;;;;;5004020;28;20192;-45
2023/06/13 09:18:18;;;;;;;5.80;2.50;;;;;;;;;;5013476;28;20185;-45
2023/06/13 09:20:44;;;;;;;3.08;2.33;;;;;;;;;;5005585;28;20180;-45
2023/06/13 09:23:15;;;;;;;3.58;2.25;;;;;;;;;;5012560;28;20540;-45
2023/06/13 09:25:42;;;;;;;4.25;2.53;;;;;;;;;;5013186;28;20188;-45
2023/06/13 09:28:49;;;;;;;2.45;2.00;;;;;;;;;;5012794;28;20487;-45
2023/06/13 09:31:16;;;;;;;3.03;2.72;;;;;;;;;;5015072;28;20292;-45
2023/06/13 09:33:43;;;;;;;3.55;2.35;;;;;;;;;;5014621;28;20181;-45
2023/06/13 09:36:10;;;;;;;3.70;2.45;;;;;;;;;;5015266;28;20204;-45
2023/06/13 09:38:37;;;;;;;2.15;1.95;;;;;;;;;;5016689;28;21779;-45
2023/06/13 09:41:03;;;;;;;3.97;2.25;;;;;;;;;;5016717;28;20173;-45
2023/06/13 09:43:30;;;;;;;4.05;2.40;;;;;;;;;;5015344;28;20271;-46
2023/06/13 09:45:55;;;;;;;3.83;2.40;;;;;;;;;;5011043;28;20212;-47
2023/06/13 09:48:22;;;;;;;2.53;2.33;;;;;;;;;;5013240;28;20212;-47
2023/06/13 09:50:52;;;;;;;3.55;2.60;;;;;;;;;;5009040;28;20181;-45
2023/06/13 09:53:18;;;;;;;3.03;2.22;;;;;;;;;;5014441;28;20192;-46
2023/06/13 09:55:44;;;;;;;2.60;2.10;;;;;;;;;;5006961;28;20207;-45
2023/06/13 09:58:10;;;;;;;2.60;1.80;;;;;;;;;;5015520;28;20564;-45
2023/06/13 10:00:36;;;;;;;4.50;2.25;;;;;;;;;;5016420;28;20187;-45
2023/06/13 10:03:03;;;;;;;3.05;2.40;;;;;;;;;;5016400;28;20185;-45
2023/06/13 10:05:29;;;;;;;4.28;2.42;;;;;;;;;;5015481;28;20197;-45
2023/06/13 10:07:55;;;;;;;4.28;2.70;;;;;;;;;;5013760;28;20262;-46
2023/06/13 10:10:21;;;;;;;3.13;2.50;;;;;;;;;;5014601;28;20185;-46
2023/06/13 10:12:48;;;;;;;2.72;2.40;;;;;;;;;;5016277;28;20251;-45
2023/06/13 10:15:19;;;;;;;3.95;2.20;;;;;;;;;;5010468;28;20173;-46
2023/06/13 10:17:46;;;;;;;3.75;2.38;;;;;;;;;;5011891;28;20211;-45
2023/06/13 10:20:15;;;;;;;5.55;2.33;;;;;;;;;;5010348;28;20207;-46
2023/06/13 10:22:41;;;;;;;2.65;2.30;;;;;;;;;;5014315;28;20603;-46
2023/06/13 10:25:08;;;;;;;5.20;2.22;;;;;;;;;;5011104;28;20181;-46
2023/06/13 10:27:37;;;;;;;2.47;2.10;;;;;;;;;;5013654;28;20212;-46
2023/06/13 10:30:16;;;;;;;2.42;2.15;;;;;;;;;;5009100;28;20184;-46
2023/06/13 10:32:53;;;;;;;4.30;2.05;;;;;;;;;;5010353;28;20280;-45
2023/06/13 10:35:20;;;;;;;2.80;2.30;;;;;;;;;;5013100;28;20211;-45
2023/06/13 10:38:05;;;;;;;3.78;2.28;;;;;;;;;;5010642;28;20219;-45
2023/06/13 10:40:43;;;;;;;2.60;2.38;;;;;;;;;;5012950;28;20184;-46
2023/06/13 10:43:16;;;;;;;5.50;2.20;;;;;;;;;;5015630;28;20766;-45
2023/06/13 10:45:44;;;;;;;6.97;2.67;;;;;;;;;;5012355;28;20184;-45
2023/06/13 10:48:10;;;;;;;5.82;2.65;;;;;;;;;;5008759;28;20299;-45
2023/06/13 10:50:38;;;;;;;6.60;2.78;;;;;;;;;;5014677;28;20191;-46
2023/06/13 10:53:04;;;;;;;3.00;2.47;;;;;;;;;;5009195;28;20225;-45
2023/06/13 10:55:32;;;;;;;5.28;2.47;;;;;;;;;;5013449;28;20591;-45
2023/06/13 10:57:59;;;;;;;4.05;2.58;;;;;;;;;;5013766;28;20204;-45
2023/06/13 11:00:29;;;;;;;7.25;3.40;;;;;;;;;;5014305;28;20192;-46
2023/06/13 11:03:06;;;;;;;13.13;2.72;;;;;;;;;;5011645;28;20195;-45
2023/06/13 11:05:51;;;;;;;4.30;2.58;;;;;;;;;;5013330;28;20188;-44
2023/06/13 11:08:19;;;;;;;7.70;2.85;;;;;;;;;;5006344;28;20239;-44
2023/06/13 11:10:46;;;;;;;6.63;2.92;;;;;;;;;;5014026;28;20237;-45
2023/06/13 11:13:16;;;;;;;3.80;2.40;;;;;;;;;;5012214;28;20185;-45
2023/06/13 11:15:43;;;;;;;3.63;2.63;;;;;;;;;;5012971;28;20580;-45
2023/06/13 11:18:09;;;;;;;4.75;3.00;;;;;;;;;;5013344;28;20184;-45
2023/06/13 11:20:35;;;;;;;4.10;2.45;;;;;;;;;;5013008;28;20231;-45
2023/06/13 11:23:02;;;;;;;3.08;2.83;;;;;;;;;;5030849;28;20263;-45
2023/06/13 11:25:29;;;;;;;6.93;2.58;;;;;;;;;;5011818;28;20172;-44
2023/06/13 11:27:55;;;;;;;4.63;2.72;;;;;;;;;;5013583;28;20576;-45
2023/06/13 11:30:21;;;;;;;2.88;2.40;;;;;;;;;;5013966;28;20466;-45
2023/06/13 11:32:48;;;;;;;6.65;2.58;;;;;;;;;;5015346;28;20189;-45
2023/06/13 11:35:16;;;;;;;4.53;2.53;;;;;;;;;;5013352;28;20208;-45
2023/06/13 11:37:46;;;;;;;4.88;2.53;;;;;;;;;;5013428;28;20177;-45
2023/06/13 11:40:15;;;;;;;4.32;2.50;;;;;;;;;;5015111;28;20609;-45
2023/06/13 11:42:41;;;;;;;6.15;2.72;;;;;;;;;;5012468;28;20180;-45
2023/06/13 11:45:07;;;;;;;2.95;2.58;;;;;;;;;;5005321;28;20172;-45
2023/06/13 11:47:33;;;;;;;3.85;2.35;;;;;;;;;;5011735;28;20342;-45
2023/06/13 11:49:59;;;;;;;3.95;2.40;;;;;;;;;;5007191;28;20264;-45
2023/06/13 11:52:25;;;;;;;7.30;2.90;;;;;;;;;;5009141;28;20177;-45
2023/06/13 11:54:52;;;;;;;7.75;3.00;;;;;;;;;;5010612;28;20211;-45
2023/06/13 11:57:18;;;;;;;11.57;3.00;;;;;;;;;;5012670;28;20232;-45
2023/06/13 11:59:44;;;;;;;4.03;2.80;;;;;;;;;;5013740;28;20196;-45
2023/06/13 12:02:10;;;;;;;4.85;2.58;;;;;;;;;;5014432;28;20485;-45
2023/06/13 12:04:39;;;;;;;4.22;2.50;;;;;;;;;;5011286;28;20268;-45
2023/06/13 12:07:07;;;;;;;5.80;2.58;;;;;;;;;;5011813;28;20204;-45
2023/06/13 12:09:33;;;;;;;5.07;2.85;;;;;;;;;;5014543;28;20187;-45
2023/06/13 12:11:59;;;;;;;5.70;2.53;;;;;;;;;;5014398;28;20184;-45
2023/06/13 12:14:25;;;;;;;8.57;2.95;;;;;;;;;;5011329;28;20454;-45
2023/06/13 12:16:54;;;;;;;6.22;3.00;;;;;;;;;;5008354;28;20181;-46
2023/06/13 12:19:21;;;;;;;8.95;2.80;;;;;;;;;;5006212;28;20602;-45
2023/06/13 12:21:49;;;;;;;7.18;2.95;;;;;;;;;;5013608;28;20204;-46
2023/06/13 12:24:16;;;;;;;7.00;2.80;;;;;;;;;;5009112;28;20215;-45
2023/06/13 12:26:44;;;;;;;3.85;2.58;;;;;;;;;;5012304;28;20215;-45
2023/06/13 12:29:16;;;;;;;3.97;2.80;;;;;;;;;;5006982;28;20255;-45
2023/06/13 12:31:47;;;;;;;4.05;3.03;;;;;;;;;;5013471;28;20454;-45
2023/06/13 12:34:27;;;;;;;11.38;3.05;;;;;;;;;;5006865;28;20187;-44
2023/06/13 12:36:56;;;;;;;10.55;2.67;;;;;;;;;;5012800;28;20211;-44
2023/06/13 12:39:23;;;;;;;7.30;2.58;;;;;;;;;;5005549;28;20784;-44
2023/06/13 12:41:49;;;;;;;4.97;2.95;;;;;;;;;;5013426;28;20565;-45
2023/06/13 12:44:15;;;;;;;8.30;2.92;;;;;;;;;;5013237;28;20579;-45
2023/06/13 12:46:42;;;;;;;8.52;3.17;;;;;;;;;;5017809;28;20215;-45
2023/06/13 12:49:11;;;;;;;6.90;2.50;;;;;;;;;;5013541;28;20212;-45
2023/06/13 12:51:42;;;;;;;7.78;3.20;;;;;;;;;;5012114;28;20219;-45
2023/06/13 12:54:09;;;;;;;12.45;3.53;;;;;;;;;;5005055;28;20177;-45
2023/06/13 12:56:34;;;;;;;7.18;3.17;;;;;;;;;;5008868;28;20184;-45
2023/06/13 12:59:01;;;;;;;6.30;2.72;;;;;;;;;;5008929;28;20209;-45
2023/06/13 13:01:27;;;;;;;5.15;2.83;;;;;;;;;;5008798;28;20567;-47
2023/06/13 13:03:52;;;;;;;5.28;2.78;;;;;;;;;;5014584;28;20195;-44
2023/06/13 13:06:18;;;;;;;7.85;2.80;;;;;;;;;;5011025;28;20501;-46
2023/06/13 13:08:44;;;;;;;4.05;2.80;;;;;;;;;;5014474;28;20196;-45
2023/06/13 13:11:10;;;;;;;6.18;3.25;;;;;;;;;;5016940;28;20180;-45
2023/06/13 13:13:36;;;;;;;4.80;2.92;;;;;;;;;;5016921;28;20188;-45
2023/06/13 13:16:02;;;;;;;4.32;2.83;;;;;;;;;;5022705;28;20238;-45
2023/06/13 13:18:28;;;;;;;4.10;2.85;;;;;;;;;;5010155;28;20184;-45
2023/06/13 13:20:54;;;;;;;4.07;2.40;;;;;;;;;;5016535;28;20192;-44
2023/06/13 13:23:20;;;;;;;3.50;2.55;;;;;;;;;;5016104;28;20283;-44
2023/06/13 13:25:46;;;;;;;7.28;2.65;;;;;;;;;;5015703;28;20191;-45
2023/06/13 13:28:11;;;;;;;5.18;2.92;;;;;;;;;;5007408;28;20634;-45
2023/06/13 13:30:37;;;;;;;3.40;2.88;;;;;;;;;;5012679;28;20226;-45
2023/06/13 13:33:03;;;;;;;2.90;2.60;;;;;;;;;;5016181;28;20690;-45
2023/06/13 13:35:29;;;;;;;3.08;2.42;;;;;;;;;;5014033;28;20279;-44
2023/06/13 13:37:55;;;;;;;8.20;3.13;;;;;;;;;;5008548;28;20213;-45
2023/06/13 13:40:21;;;;;;;4.30;3.42;;;;;;;;;;5015944;28;20189;-44
2023/06/13 13:42:47;;;;;;;3.10;2.80;;;;;;;;;;5025192;28;20274;-45
2023/06/13 13:45:13;;;;;;;3.40;3.10;;;;;;;;;;5019576;28;20233;-44
2023/06/13 13:47:39;;;;;;;4.40;2.47;;;;;;;;;;5005957;28;20469;-44
2023/06/13 13:50:05;;;;;;;10.65;3.55;;;;;;;;;;5006184;28;20184;-44
2023/06/13 13:52:31;;;;;;;6.75;3.30;;;;;;;;;;5011540;28;20266;-44
2023/06/13 13:54:57;;;;;;;3.05;2.70;;;;;;;;;;5012461;28;20259;-45
2023/06/13 13:57:23;;;;;;;10.98;3.22;;;;;;;;;;5011504;28;20304;-45
2023/06/13 13:59:49;;;;;;;4.45;3.10;;;;;;;;;;5016003;28;20236;-45
2023/06/13 14:02:15;;;;;;;4.32;2.90;;;;;;;;;;5015734;28;20607;-44
2023/06/13 14:04:41;;;;;;;8.40;3.20;;;;;;;;;;5016194;28;20226;-45
2023/06/13 14:07:07;;;;;;;4.28;2.85;;;;;;;;;;5012707;28;20303;-45
2023/06/13 14:09:33;;;;;;;3.97;2.60;;;;;;;;;;5015853;28;20215;-44
2023/06/13 14:11:59;;;;;;;7.28;3.00;;;;;;;;;;5010503;28;20184;-44
2023/06/13 14:14:26;;;;;;;3.30;3.00;;;;;;;;;;5015159;28;20234;-45
2023/06/13 14:16:51;;;;;;;6.65;3.35;;;;;;;;;;5012346;28;20185;-45
2023/06/13 14:19:17;;;;;;;4.20;3.20;;;;;;;;;;5008468;28;20192;-45
2023/06/13 14:21:43;;;;;;;3.85;3.13;;;;;;;;;;5006836;28;20374;-44
2023/06/13 14:24:11;;;;;;;4.55;3.45;;;;;;;;;;5011953;28;20447;-45
2023/06/13 14:26:37;;;;;;;5.70;3.30;;;;;;;;;;5019538;28;20485;-44
2023/06/13 14:29:03;;;;;;;4.30;3.60;;;;;;;;;;5005639;28;20180;-45
2023/06/13 14:31:29;;;;;;;4.18;3.10;;;;;;;;;;5011932;28;20729;-45
2023/06/13 14:33:56;;;;;;;3.45;3.15;;;;;;;;;;5012280;28;20184;-44
2023/06/13 14:36:22;;;;;;;3.95;2.90;;;;;;;;;;5013893;28;20180;-45
2023/06/13 14:38:48;;;;;;;4.90;3.45;;;;;;;;;;5013751;28;20256;-45
2023/06/13 14:41:14;;;;;;;9.18;3.30;;;;;;;;;;5010786;28;20253;-44
2023/06/13 14:43:40;;;;;;;5.75;3.50;;;;;;;;;;5011523;28;20195;-44